sensor_id;sensor_type;location;lat;lon;timestamp;pressure;altitude;pressure_sealevel;temperature;humidity
44531;BME280;30240;47.418;0.700;2023-04-20T00:12:24;100228.60717773438;;;10.4;79.47
44531;BME280;30240;47.418;0.700;2023-04-20T00:14:49;100230.72509765625;;;10.43;79.57
44531;BME280;30240;47.418;0.700;2023-04-20T00:17:14;100230.2490234375;;;10.32;79.68
44531;BME280;30240;47.418;0.700;2023-04-20T00:19:39;100228.42407226562;;;10.4;79.72
44531;BME280;30240;47.418;0.700;2023-04-20T00:22:03;100228.42407226562;;;10.4;79.72
44531;BME280;30240;47.418;0.700;2023-04-20T00:24:28;100227.15454101562;;;10.33;79.69
44531;BME280;30240;47.418;0.700;2023-04-20T00:26:54;100224.0478515625;;;10.29;79.69
44531;BME280;30240;47.418;0.700;2023-04-20T00:29:19;100220.9228515625;;;10.28;79.78
44531;BME280;30240;47.418;0.700;2023-04-20T00:31:44;100217.20581054688;;;10.2;79.77
44531;BME280;30240;47.418;0.700;2023-04-20T00:34:09;100217.20581054688;;;10.2;79.77
44531;BME280;30240;47.418;0.700;2023-04-20T00:36:34;100205.99975585938;;;10.1;79.93
44531;BME280;30240;47.418;0.700;2023-04-20T00:38:58;100210.02197265625;;;10.08;80.01
44531;BME280;30240;47.418;0.700;2023-04-20T00:41:24;100205.56030273438;;;10.02;79.93
44531;BME280;30240;47.418;0.700;2023-04-20T00:43:49;100198.49853515625;;;10.05;79.96
44531;BME280;30240;47.418;0.700;2023-04-20T00:46:13;100196.34399414062;;;10.03;79.88
44531;BME280;30240;47.418;0.700;2023-04-20T00:48:39;100196.34399414062;;;10.03;79.88
44531;BME280;30240;47.418;0.700;2023-04-20T00:51:04;100190.869140625;;;10.03;79.96
44531;BME280;30240;47.418;0.700;2023-04-20T00:53:29;100181.9091796875;;;10.01;79.88
44531;BME280;30240;47.418;0.700;2023-04-20T00:55:54;100181.0546875;;;9.95;80.27
44531;BME280;30240;47.418;0.700;2023-04-20T00:58:19;100180.82885742188;;;9.95;80.03
44531;BME280;30240;47.418;0.700;2023-04-20T01:00:44;100180.82885742188;;;9.95;80.03
44531;BME280;30240;47.418;0.700;2023-04-20T01:03:09;100179.8828125;;;9.95;80.06
44531;BME280;30240;47.418;0.700;2023-04-20T01:05:34;100176.64184570312;;;9.95;80.01
44531;BME280;30240;47.418;0.700;2023-04-20T01:07:59;100173.66943359375;;;9.87;80.08
44531;BME280;30240;47.418;0.700;2023-04-20T01:10:24;100171.875;;;9.88;80.13
44531;BME280;30240;47.418;0.700;2023-04-20T01:12:48;100171.875;;;9.88;80.13
44531;BME280;30240;47.418;0.700;2023-04-20T01:15:14;100171.03271484375;;;9.88;80.09
44531;BME280;30240;47.418;0.700;2023-04-20T01:17:39;100162.21923828125;;;9.81;80.16
44531;BME280;30240;47.418;0.700;2023-04-20T01:20:04;100167.3828125;;;9.85;80.13
44531;BME280;30240;47.418;0.700;2023-04-20T01:22:29;100160.82153320312;;;9.87;79.96
44531;BME280;30240;47.418;0.700;2023-04-20T01:24:54;100160.82153320312;;;9.87;79.96
44531;BME280;30240;47.418;0.700;2023-04-20T01:27:19;100158.70971679688;;;9.78;80.13
44531;BME280;30240;47.418;0.700;2023-04-20T01:29:44;100156.84204101562;;;9.8;80.03
44531;BME280;30240;47.418;0.700;2023-04-20T01:32:09;100159.85717773438;;;9.78;79.99
44531;BME280;30240;47.418;0.700;2023-04-20T01:34:34;100156.54907226562;;;9.67;79.93
44531;BME280;30240;47.418;0.700;2023-04-20T01:36:59;100156.54907226562;;;9.67;79.93
44531;BME280;30240;47.418;0.700;2023-04-20T01:39:24;100154.94384765625;;;9.64;80.12
44531;BME280;30240;47.418;0.700;2023-04-20T01:41:49;100148.26049804688;;;9.69;80.02
44531;BME280;30240;47.418;0.700;2023-04-20T01:44:13;100139.45922851562;;;9.74;79.9
44531;BME280;30240;47.418;0.700;2023-04-20T01:46:39;100134.28344726562;;;9.71;79.8
44531;BME280;30240;47.418;0.700;2023-04-20T01:49:04;100134.28344726562;;;9.71;79.8
44531;BME280;30240;47.418;0.700;2023-04-20T01:51:28;100131.689453125;;;9.74;79.67
44531;BME280;30240;47.418;0.700;2023-04-20T01:53:54;100128.80249023438;;;9.75;79.59
44531;BME280;30240;47.418;0.700;2023-04-20T01:56:19;100134.21630859375;;;9.81;79.43
44531;BME280;30240;47.418;0.700;2023-04-20T01:58:44;100130.75561523438;;;9.8;79.41
44531;BME280;30240;47.418;0.700;2023-04-20T02:01:08;100130.75561523438;;;9.8;79.41
44531;BME280;30240;47.418;0.700;2023-04-20T02:03:33;100128.92456054688;;;9.73;79.39
44531;BME280;30240;47.418;0.700;2023-04-20T02:05:59;100132.47680664062;;;9.7;79.32
44531;BME280;30240;47.418;0.700;2023-04-20T02:08:24;100129.47387695312;;;9.7;79.42
44531;BME280;30240;47.418;0.700;2023-04-20T02:10:48;100124.76806640625;;;9.77;79.43
44531;BME280;30240;47.418;0.700;2023-04-20T02:13:14;100125.10986328125;;;9.73;79.46
44531;BME280;30240;47.418;0.700;2023-04-20T02:15:38;100125.10986328125;;;9.73;79.46
44531;BME280;30240;47.418;0.700;2023-04-20T02:18:04;100128.5400390625;;;9.66;79.74
44531;BME280;30240;47.418;0.700;2023-04-20T02:20:29;100121.9482421875;;;9.57;80.05
44531;BME280;30240;47.418;0.700;2023-04-20T02:22:54;100122.12524414062;;;9.5;80.27
44531;BME280;30240;47.418;0.700;2023-04-20T02:25:19;100123.974609375;;;9.47;80.18
44531;BME280;30240;47.418;0.700;2023-04-20T02:27:44;100123.974609375;;;9.47;80.18
44531;BME280;30240;47.418;0.700;2023-04-20T02:30:09;100119.25659179688;;;9.49;80.1
44531;BME280;30240;47.418;0.700;2023-04-20T02:32:34;100118.9697265625;;;9.47;79.69
44531;BME280;30240;47.418;0.700;2023-04-20T02:34:59;100125.64086914062;;;9.42;79.72
44531;BME280;30240;47.418;0.700;2023-04-20T02:37:23;100126.58081054688;;;9.46;79.5
44531;BME280;30240;47.418;0.700;2023-04-20T02:39:48;100126.58081054688;;;9.46;79.5
44531;BME280;30240;47.418;0.700;2023-04-20T02:42:13;100121.74072265625;;;9.35;79.32
44531;BME280;30240;47.418;0.700;2023-04-20T02:44:38;100121.01440429688;;;9.29;79.23
44531;BME280;30240;47.418;0.700;2023-04-20T02:47:04;100124.68872070312;;;9.22;79.19
44531;BME280;30240;47.418;0.700;2023-04-20T02:49:28;100122.265625;;;9.21;79.22
44531;BME280;30240;47.418;0.700;2023-04-20T02:51:54;100122.265625;;;9.21;79.22
44531;BME280;30240;47.418;0.700;2023-04-20T02:54:18;100119.12231445312;;;9.15;79.32
44531;BME280;30240;47.418;0.700;2023-04-20T02:56:43;100119.37255859375;;;9.19;79.02
44531;BME280;30240;47.418;0.700;2023-04-20T02:59:09;100113.9404296875;;;9.08;79.06
44531;BME280;30240;47.418;0.700;2023-04-20T03:01:34;100119.3603515625;;;9.03;78.93
44531;BME280;30240;47.418;0.700;2023-04-20T03:03:59;100119.3603515625;;;9.03;78.93
44531;BME280;30240;47.418;0.700;2023-04-20T03:06:23;100117.46826171875;;;9.0;78.96
44531;BME280;30240;47.418;0.700;2023-04-20T03:08:48;100117.41943359375;;;8.91;78.96
44531;BME280;30240;47.418;0.700;2023-04-20T03:11:14;100124.10888671875;;;8.88;79.04
44531;BME280;30240;47.418;0.700;2023-04-20T03:13:39;100118.60961914062;;;8.8;79.07
44531;BME280;30240;47.418;0.700;2023-04-20T03:16:04;100118.60961914062;;;8.8;79.07
44531;BME280;30240;47.418;0.700;2023-04-20T03:18:29;100122.2412109375;;;8.81;78.98
44531;BME280;30240;47.418;0.700;2023-04-20T03:20:54;100123.4130859375;;;8.77;79.14
44531;BME280;30240;47.418;0.700;2023-04-20T03:23:18;100125.54931640625;;;8.8;79.04
44531;BME280;30240;47.418;0.700;2023-04-20T03:25:44;100124.10888671875;;;8.7;79.1
44531;BME280;30240;47.418;0.700;2023-04-20T03:28:08;100124.10888671875;;;8.7;79.1
44531;BME280;30240;47.418;0.700;2023-04-20T03:30:34;100126.58081054688;;;8.69;79.06
44531;BME280;30240;47.418;0.700;2023-04-20T03:32:59;100134.07592773438;;;8.66;79.08
44531;BME280;30240;47.418;0.700;2023-04-20T03:35:24;100130.15747070312;;;8.67;78.95
44531;BME280;30240;47.418;0.700;2023-04-20T03:37:49;100130.7373046875;;;8.52;78.83
44531;BME280;30240;47.418;0.700;2023-04-20T03:40:14;100130.7373046875;;;8.52;78.83
44531;BME280;30240;47.418;0.700;2023-04-20T03:42:39;100131.8603515625;;;8.52;78.73
44531;BME280;30240;47.418;0.700;2023-04-20T03:45:05;100126.67236328125;;;8.44;78.22
44531;BME280;30240;47.418;0.700;2023-04-20T03:47:28;100126.45263671875;;;8.42;77.73
44531;BME280;30240;47.418;0.700;2023-04-20T03:49:54;100123.29711914062;;;8.44;77.36
44531;BME280;30240;47.418;0.700;2023-04-20T03:52:18;100124.0478515625;;;8.45;76.96
44531;BME280;30240;47.418;0.700;2023-04-20T03:54:44;100124.0478515625;;;8.45;76.96
44531;BME280;30240;47.418;0.700;2023-04-20T03:57:08;100118.1884765625;;;8.35;76.7
44531;BME280;30240;47.418;0.700;2023-04-20T03:59:33;100119.00024414062;;;8.39;76.46
44531;BME280;30240;47.418;0.700;2023-04-20T04:01:58;100119.6533203125;;;8.35;76.33
44531;BME280;30240;47.418;0.700;2023-04-20T04:04:24;100121.40502929688;;;8.28;76.33
44531;BME280;30240;47.418;0.700;2023-04-20T04:06:49;100121.40502929688;;;8.28;76.33
44531;BME280;30240;47.418;0.700;2023-04-20T04:09:14;100120.89233398438;;;8.31;76.05
44531;BME280;30240;47.418;0.700;2023-04-20T04:11:39;100126.65405273438;;;8.22;75.85
44531;BME280;30240;47.418;0.700;2023-04-20T04:14:03;100124.23706054688;;;8.25;75.94
44531;BME280;30240;47.418;0.700;2023-04-20T04:16:29;100118.20068359375;;;8.24;75.87
44531;BME280;30240;47.418;0.700;2023-04-20T04:18:54;100118.20068359375;;;8.24;75.87
44531;BME280;30240;47.418;0.700;2023-04-20T04:21:18;100119.25048828125;;;8.15;75.67
44531;BME280;30240;47.418;0.700;2023-04-20T04:23:43;100115.73486328125;;;8.17;75.74
44531;BME280;30240;47.418;0.700;2023-04-20T04:26:08;100112.07885742188;;;8.15;75.59
44531;BME280;30240;47.418;0.700;2023-04-20T04:28:34;100115.29541015625;;;8.1;75.72
44531;BME280;30240;47.418;0.700;2023-04-20T04:30:59;100115.29541015625;;;8.1;75.72
44531;BME280;30240;47.418;0.700;2023-04-20T04:33:23;100116.96166992188;;;8.11;75.72
44531;BME280;30240;47.418;0.700;2023-04-20T04:35:48;100105.859375;;;8.07;75.65
44531;BME280;30240;47.418;0.700;2023-04-20T04:38:15;100111.62719726562;;;8.08;75.6
44531;BME280;30240;47.418;0.700;2023-04-20T04:40:43;100115.53344726562;;;8.14;75.43
44531;BME280;30240;47.418;0.700;2023-04-20T04:43:04;100115.53344726562;;;8.14;75.43
44531;BME280;30240;47.418;0.700;2023-04-20T04:45:28;100121.20361328125;;;8.0;75.74
44531;BME280;30240;47.418;0.700;2023-04-20T04:47:53;100120.97778320312;;;7.97;75.94
44531;BME280;30240;47.418;0.700;2023-04-20T04:50:19;100121.67358398438;;;8.0;76.05
44531;BME280;30240;47.418;0.700;2023-04-20T04:52:44;100119.83032226562;;;7.98;75.85
44531;BME280;30240;47.418;0.700;2023-04-20T04:55:09;100119.83032226562;;;7.98;75.85
44531;BME280;30240;47.418;0.700;2023-04-20T04:57:34;100121.45385742188;;;7.97;76.06
44531;BME280;30240;47.418;0.700;2023-04-20T04:59:58;100122.08862304688;;;7.83;75.83
44531;BME280;30240;47.418;0.700;2023-04-20T05:02:24;100123.40698242188;;;7.85;76.0
44531;BME280;30240;47.418;0.700;2023-04-20T05:04:48;100124.49951171875;;;7.89;75.99
44531;BME280;30240;47.418;0.700;2023-04-20T05:07:13;100124.49951171875;;;7.89;75.99
44531;BME280;30240;47.418;0.700;2023-04-20T05:09:39;100130.93872070312;;;7.9;76.06
44531;BME280;30240;47.418;0.700;2023-04-20T05:12:04;100133.984375;;;7.89;76.18
44531;BME280;30240;47.418;0.700;2023-04-20T05:14:29;100134.2041015625;;;7.94;76.14
44531;BME280;30240;47.418;0.700;2023-04-20T05:16:53;100131.8603515625;;;7.86;76.53
44531;BME280;30240;47.418;0.700;2023-04-20T05:19:19;100136.90795898438;;;7.87;76.66
44531;BME280;30240;47.418;0.700;2023-04-20T05:21:43;100136.90795898438;;;7.87;76.66
44531;BME280;30240;47.418;0.700;2023-04-20T05:24:08;100133.45336914062;;;7.83;76.95
44531;BME280;30240;47.418;0.700;2023-04-20T05:26:34;100131.10961914062;;;7.87;77.25
44531;BME280;30240;47.418;0.700;2023-04-20T05:28:58;100124.49951171875;;;7.79;77.34
44531;BME280;30240;47.418;0.700;2023-04-20T05:31:24;100128.41186523438;;;7.76;77.44
44531;BME280;30240;47.418;0.700;2023-04-20T05:33:49;100128.41186523438;;;7.76;77.44
44531;BME280;30240;47.418;0.700;2023-04-20T05:36:13;100121.34399414062;;;7.83;77.67
44531;BME280;30240;47.418;0.700;2023-04-20T05:38:39;100127.13012695312;;;7.96;77.37
44531;BME280;30240;47.418;0.700;2023-04-20T05:41:04;100131.77490234375;;;7.9;77.62
44531;BME280;30240;47.418;0.700;2023-04-20T05:43:28;100147.67456054688;;;7.94;77.84
44531;BME280;30240;47.418;0.700;2023-04-20T05:45:53;100147.67456054688;;;7.94;77.84
44531;BME280;30240;47.418;0.700;2023-04-20T05:48:19;100148.54736328125;;;8.18;77.51
44531;BME280;30240;47.418;0.700;2023-04-20T05:50:43;100159.033203125;;;8.3;77.15
44531;BME280;30240;47.418;0.700;2023-04-20T05:53:09;100153.63159179688;;;8.49;76.99
44531;BME280;30240;47.418;0.700;2023-04-20T05:55:34;100159.40551757812;;;8.66;76.26
44531;BME280;30240;47.418;0.700;2023-04-20T05:57:59;100159.40551757812;;;8.66;76.26
44531;BME280;30240;47.418;0.700;2023-04-20T06:00:24;100148.73657226562;;;8.7;75.62
44531;BME280;30240;47.418;0.700;2023-04-20T06:02:48;100146.59423828125;;;8.76;75.04
44531;BME280;30240;47.418;0.700;2023-04-20T06:05:14;100143.78662109375;;;8.81;74.89
44531;BME280;30240;47.418;0.700;2023-04-20T06:07:39;100137.6220703125;;;8.81;74.88
44531;BME280;30240;47.418;0.700;2023-04-20T06:10:05;100137.6220703125;;;8.81;74.88
44531;BME280;30240;47.418;0.700;2023-04-20T06:12:29;100148.13842773438;;;8.84;74.99
44531;BME280;30240;47.418;0.700;2023-04-20T06:14:53;100145.84350585938;;;8.81;75.05
44531;BME280;30240;47.418;0.700;2023-04-20T06:17:18;100157.92236328125;;;8.79;74.95
44531;BME280;30240;47.418;0.700;2023-04-20T06:19:43;100150.47607421875;;;8.8;75.06
44531;BME280;30240;47.418;0.700;2023-04-20T06:22:09;100150.47607421875;;;8.8;75.06
44531;BME280;30240;47.418;0.700;2023-04-20T06:24:33;100154.88891601562;;;8.88;74.83
44531;BME280;30240;47.418;0.700;2023-04-20T06:26:58;100154.88891601562;;;8.88;74.77
44531;BME280;30240;47.418;0.700;2023-04-20T06:29:23;100157.75146484375;;;8.85;74.75
44531;BME280;30240;47.418;0.700;2023-04-20T06:31:49;100149.37744140625;;;9.04;74.37
44531;BME280;30240;47.418;0.700;2023-04-20T06:34:13;100149.37744140625;;;9.04;74.37
44531;BME280;30240;47.418;0.700;2023-04-20T06:36:40;100157.24487304688;;;9.08;74.03
44531;BME280;30240;47.418;0.700;2023-04-20T06:39:03;100163.25073242188;;;9.15;73.87
44531;BME280;30240;47.418;0.700;2023-04-20T06:41:28;100157.8369140625;;;9.29;73.74
44531;BME280;30240;47.418;0.700;2023-04-20T06:43:54;100157.08618164062;;;9.36;73.44
44531;BME280;30240;47.418;0.700;2023-04-20T06:46:18;100157.08618164062;;;9.36;73.44
44531;BME280;30240;47.418;0.700;2023-04-20T06:48:43;100162.5;;;9.6;72.94
44531;BME280;30240;47.418;0.700;2023-04-20T06:51:11;100153.35083007812;;;9.51;72.92
44531;BME280;30240;47.418;0.700;2023-04-20T06:53:33;100151.123046875;;;9.63;72.5
44531;BME280;30240;47.418;0.700;2023-04-20T06:55:59;100156.1279296875;;;9.7;72.02
44531;BME280;30240;47.418;0.700;2023-04-20T06:58:23;100152.17895507812;;;9.82;71.88
44531;BME280;30240;47.418;0.700;2023-04-20T07:00:48;100152.17895507812;;;9.82;71.88
44531;BME280;30240;47.418;0.700;2023-04-20T07:03:13;100148.45581054688;;;9.95;71.47
44531;BME280;30240;47.418;0.700;2023-04-20T07:05:38;100144.89135742188;;;10.08;70.95
44531;BME280;30240;47.418;0.700;2023-04-20T07:08:04;100130.93872070312;;;10.1;70.72
44531;BME280;30240;47.418;0.700;2023-04-20T07:10:29;100134.814453125;;;10.17;70.57
44531;BME280;30240;47.418;0.700;2023-04-20T07:12:53;100134.814453125;;;10.17;70.57
44531;BME280;30240;47.418;0.700;2023-04-20T07:15:18;100137.64038085938;;;10.33;70.02
44531;BME280;30240;47.418;0.700;2023-04-20T07:17:43;100137.9638671875;;;10.5;69.94
44531;BME280;30240;47.418;0.700;2023-04-20T07:20:09;100139.3310546875;;;10.34;69.69
44531;BME280;30240;47.418;0.700;2023-04-20T07:22:34;100139.34326171875;;;10.68;69.2
44531;BME280;30240;47.418;0.700;2023-04-20T07:24:59;100139.34326171875;;;10.68;69.2
44531;BME280;30240;47.418;0.700;2023-04-20T07:27:23;100134.68627929688;;;10.99;68.78
44531;BME280;30240;47.418;0.700;2023-04-20T07:29:48;100126.53198242188;;;10.88;68.36
44531;BME280;30240;47.418;0.700;2023-04-20T07:32:14;100137.4267578125;;;11.16;68.4
44531;BME280;30240;47.418;0.700;2023-04-20T07:34:39;100133.82568359375;;;11.31;67.67
44531;BME280;30240;47.418;0.700;2023-04-20T07:37:03;100133.82568359375;;;11.31;67.67
44531;BME280;30240;47.418;0.700;2023-04-20T07:39:28;100131.591796875;;;11.33;67.46
44531;BME280;30240;47.418;0.700;2023-04-20T07:41:54;100135.3271484375;;;11.59;66.9
44531;BME280;30240;47.418;0.700;2023-04-20T07:44:18;100126.8310546875;;;11.57;66.92
44531;BME280;30240;47.418;0.700;2023-04-20T07:46:43;100128.23486328125;;;12.21;65.94
44531;BME280;30240;47.418;0.700;2023-04-20T07:49:09;100128.23486328125;;;12.21;65.94
44531;BME280;30240;47.418;0.700;2023-04-20T07:51:33;100131.14013671875;;;12.66;65.02
44531;BME280;30240;47.418;0.700;2023-04-20T07:53:59;100128.07006835938;;;12.92;64.6
44531;BME280;30240;47.418;0.700;2023-04-20T07:56:23;100127.96630859375;;;12.0;66.43
44531;BME280;30240;47.418;0.700;2023-04-20T07:58:48;100119.34204101562;;;12.48;65.68
44531;BME280;30240;47.418;0.700;2023-04-20T08:01:14;100119.34204101562;;;12.48;65.68
44531;BME280;30240;47.418;0.700;2023-04-20T08:03:38;100123.52905273438;;;12.51;65.27
44531;BME280;30240;47.418;0.700;2023-04-20T08:06:03;100127.9541015625;;;12.7;65.26
44531;BME280;30240;47.418;0.700;2023-04-20T08:08:29;100125.86059570312;;;12.9;64.93
44531;BME280;30240;47.418;0.700;2023-04-20T08:10:55;100121.9970703125;;;12.37;65.85
44531;BME280;30240;47.418;0.700;2023-04-20T08:13:19;100121.9970703125;;;12.37;65.85
44531;BME280;30240;47.418;0.700;2023-04-20T08:15:43;100128.3935546875;;;13.03;64.52
44531;BME280;30240;47.418;0.700;2023-04-20T08:18:08;100126.513671875;;;12.94;63.81
44531;BME280;30240;47.418;0.700;2023-04-20T08:20:34;100129.541015625;;;13.04;63.19
44531;BME280;30240;47.418;0.700;2023-04-20T08:22:58;100138.81225585938;;;13.06;63.74
44531;BME280;30240;47.418;0.700;2023-04-20T08:25:24;100132.18994140625;;;13.84;62.12
44531;BME280;30240;47.418;0.700;2023-04-20T08:27:49;100132.18994140625;;;13.84;62.12
44531;BME280;30240;47.418;0.700;2023-04-20T08:30:14;100119.72045898438;;;13.28;62.46
44531;BME280;30240;47.418;0.700;2023-04-20T08:32:38;100133.65478515625;;;13.8;62.07
44531;BME280;30240;47.418;0.700;2023-04-20T08:35:04;100130.58471679688;;;14.07;60.99
44531;BME280;30240;47.418;0.700;2023-04-20T08:37:29;100134.2529296875;;;14.14;61.21
44531;BME280;30240;47.418;0.700;2023-04-20T08:39:53;100134.2529296875;;;14.14;61.21
44531;BME280;30240;47.418;0.700;2023-04-20T08:42:20;100134.09423828125;;;13.9;60.94
44531;BME280;30240;47.418;0.700;2023-04-20T08:44:43;100134.9365234375;;;14.33;60.01
44531;BME280;30240;47.418;0.700;2023-04-20T08:47:10;100133.34350585938;;;14.35;59.93
44531;BME280;30240;47.418;0.700;2023-04-20T08:49:34;100140.14282226562;;;14.47;60.2
44531;BME280;30240;47.418;0.700;2023-04-20T08:51:59;100140.14282226562;;;14.47;60.2
44531;BME280;30240;47.418;0.700;2023-04-20T08:54:24;100143.20068359375;;;15.33;58.11
44531;BME280;30240;47.418;0.700;2023-04-20T08:56:49;100134.29565429688;;;15.44;57.2
44531;BME280;30240;47.418;0.700;2023-04-20T08:59:14;100132.11059570312;;;14.87;57.85
44531;BME280;30240;47.418;0.700;2023-04-20T09:01:39;100134.57641601562;;;15.02;58.51
44531;BME280;30240;47.418;0.700;2023-04-20T09:04:17;100134.57641601562;;;15.02;58.51
44531;BME280;30240;47.418;0.700;2023-04-20T09:06:28;100134.4970703125;;;15.18;57.54
44531;BME280;30240;47.418;0.700;2023-04-20T09:08:54;100122.71118164062;;;15.93;55.84
44531;BME280;30240;47.418;0.700;2023-04-20T09:11:19;100130.49926757812;;;15.29;57.12
44531;BME280;30240;47.418;0.700;2023-04-20T09:13:43;100145.80688476562;;;16.08;55.97
44531;BME280;30240;47.418;0.700;2023-04-20T09:16:09;100145.80688476562;;;16.08;55.97
44531;BME280;30240;47.418;0.700;2023-04-20T09:18:33;100135.34545898438;;;16.03;54.44
44531;BME280;30240;47.418;0.700;2023-04-20T09:21:07;100135.65673828125;;;15.79;55.05
44531;BME280;30240;47.418;0.700;2023-04-20T09:23:24;100136.23657226562;;;16.48;53.92
44531;BME280;30240;47.418;0.700;2023-04-20T09:25:50;100134.74731445312;;;16.9;52.8
44531;BME280;30240;47.418;0.700;2023-04-20T09:28:13;100134.74731445312;;;16.9;52.8
44531;BME280;30240;47.418;0.700;2023-04-20T09:30:40;100132.67211914062;;;16.57;52.65
44531;BME280;30240;47.418;0.700;2023-04-20T09:33:04;100128.54614257812;;;16.06;51.45
44531;BME280;30240;47.418;0.700;2023-04-20T09:35:29;100118.8232421875;;;16.2;52.16
44531;BME280;30240;47.418;0.700;2023-04-20T09:37:53;100124.8779296875;;;16.61;52.04
44531;BME280;30240;47.418;0.700;2023-04-20T09:40:19;100124.8779296875;;;16.61;52.04
44531;BME280;30240;47.418;0.700;2023-04-20T09:42:44;100121.5576171875;;;16.64;51.77
44531;BME280;30240;47.418;0.700;2023-04-20T09:45:11;100116.77856445312;;;16.82;50.87
44531;BME280;30240;47.418;0.700;2023-04-20T09:47:34;100120.4833984375;;;16.62;51.16
44531;BME280;30240;47.418;0.700;2023-04-20T09:49:58;100119.11010742188;;;16.72;50.37
44531;BME280;30240;47.418;0.700;2023-04-20T09:52:25;100119.11010742188;;;16.72;50.37
44531;BME280;30240;47.418;0.700;2023-04-20T09:54:50;100112.68920898438;;;16.57;50.56
44531;BME280;30240;47.418;0.700;2023-04-20T09:57:13;100108.23364257812;;;17.49;48.14
44531;BME280;30240;47.418;0.700;2023-04-20T09:59:41;100114.95361328125;;;17.09;47.56
44531;BME280;30240;47.418;0.700;2023-04-20T10:02:06;100110.888671875;;;17.1;47.42
44531;BME280;30240;47.418;0.700;2023-04-20T10:04:29;100110.7666015625;;;17.87;44.59
44531;BME280;30240;47.418;0.700;2023-04-20T10:06:54;100110.7666015625;;;17.87;44.59
44531;BME280;30240;47.418;0.700;2023-04-20T10:09:20;100107.78198242188;;;16.99;44.2
44531;BME280;30240;47.418;0.700;2023-04-20T10:11:43;100092.37670898438;;;17.3;43.44
44531;BME280;30240;47.418;0.700;2023-04-20T10:14:17;100101.06201171875;;;17.98;42.89
44531;BME280;30240;47.418;0.700;2023-04-20T10:16:33;100112.0361328125;;;17.87;43.37
44531;BME280;30240;47.418;0.700;2023-04-20T10:19:00;100112.0361328125;;;17.87;43.37
44531;BME280;30240;47.418;0.700;2023-04-20T10:21:23;100104.84619140625;;;17.96;42.17
44531;BME280;30240;47.418;0.700;2023-04-20T10:23:50;100102.587890625;;;18.11;42.33
44531;BME280;30240;47.418;0.700;2023-04-20T10:26:13;100105.35888671875;;;17.73;40.42
44531;BME280;30240;47.418;0.700;2023-04-20T10:28:40;100101.67236328125;;;18.05;40.75
44531;BME280;30240;47.418;0.700;2023-04-20T10:31:04;100101.67236328125;;;18.05;40.75
44531;BME280;30240;47.418;0.700;2023-04-20T10:33:28;100099.27368164062;;;18.55;40.45
44531;BME280;30240;47.418;0.700;2023-04-20T10:35:54;100097.74780273438;;;17.98;41.9
44531;BME280;30240;47.418;0.700;2023-04-20T10:38:27;100086.46850585938;;;17.82;39.98
44531;BME280;30240;47.418;0.700;2023-04-20T10:40:43;100085.91918945312;;;17.77;40.44
44531;BME280;30240;47.418;0.700;2023-04-20T10:43:19;100085.91918945312;;;17.77;40.44
44531;BME280;30240;47.418;0.700;2023-04-20T10:45:34;100087.64038085938;;;19.54;37.98
44531;BME280;30240;47.418;0.700;2023-04-20T10:48:05;100079.04663085938;;;18.73;39.45
44531;BME280;30240;47.418;0.700;2023-04-20T10:50:25;100092.57202148438;;;19.28;39.63
44531;BME280;30240;47.418;0.700;2023-04-20T10:52:48;100091.68701171875;;;18.7;39.25
44531;BME280;30240;47.418;0.700;2023-04-20T10:55:18;100091.68701171875;;;18.7;39.25
44531;BME280;30240;47.418;0.700;2023-04-20T10:57:43;100081.25;;;18.12;39.95
44531;BME280;30240;47.418;0.700;2023-04-20T11:00:13;100071.84448242188;;;19.18;36.98
44531;BME280;30240;47.418;0.700;2023-04-20T11:02:29;100083.65478515625;;;19.4;37.18
44531;BME280;30240;47.418;0.700;2023-04-20T11:04:53;100074.74975585938;;;19.04;37.89
44531;BME280;30240;47.418;0.700;2023-04-20T11:07:18;100074.74975585938;;;19.04;37.89
44531;BME280;30240;47.418;0.700;2023-04-20T11:09:43;100073.34594726562;;;19.21;35.25
44531;BME280;30240;47.418;0.700;2023-04-20T11:12:09;100067.90771484375;;;18.55;35.47
44531;BME280;30240;47.418;0.700;2023-04-20T11:14:35;100060.791015625;;;18.59;34.62
44531;BME280;30240;47.418;0.700;2023-04-20T11:16:59;100070.69702148438;;;18.49;34.96
44531;BME280;30240;47.418;0.700;2023-04-20T11:19:24;100070.69702148438;;;18.49;34.96
44531;BME280;30240;47.418;0.700;2023-04-20T11:21:48;100064.75830078125;;;19.12;34.41
44531;BME280;30240;47.418;0.700;2023-04-20T11:24:17;100063.25073242188;;;19.87;34.63
44531;BME280;30240;47.418;0.700;2023-04-20T11:26:38;100058.48388671875;;;18.67;34.88
44531;BME280;30240;47.418;0.700;2023-04-20T11:29:03;100047.63793945312;;;18.95;34.93
44531;BME280;30240;47.418;0.700;2023-04-20T11:31:29;100051.81274414062;;;19.01;35.42
44531;BME280;30240;47.418;0.700;2023-04-20T11:33:54;100051.81274414062;;;19.01;35.42
44531;BME280;30240;47.418;0.700;2023-04-20T11:36:19;100057.44018554688;;;18.81;33.54
44531;BME280;30240;47.418;0.700;2023-04-20T11:38:43;100055.09643554688;;;18.36;34.5